sensor_id;sensor_type;location;lat;lon;timestamp;P1;durP1;ratioP1;P2;durP2;ratioP2
8399;SDS011;4237;47.030;15.396;2022-10-16T00:00:19;100.17;;;53.10;;
8399;SDS011;4237;47.030;15.396;2022-10-16T00:02:47;93.73;;;52.50;;
8399;SDS011;4237;47.030;15.396;2022-10-16T00:05:15;92.40;;;50.43;;
8399;SDS011;4237;47.030;15.396;2022-10-16T00:07:43;93.13;;;51.90;;
8399;SDS011;4237;47.030;15.396;2022-10-16T00:10:12;84.67;;;49.83;;
8399;SDS011;4237;47.030;15.396;2022-10-16T00:12:40;86.80;;;51.17;;
8399;SDS011;4237;47.030;15.396;2022-10-16T00:15:09;82.00;;;48.53;;
8399;SDS011;4237;47.030;15.396;2022-10-16T00:17:37;88.60;;;50.63;;
8399;SDS011;4237;47.030;15.396;2022-10-16T00:20:05;81.00;;;49.90;;
8399;SDS011;4237;47.030;15.396;2022-10-16T00:22:34;80.80;;;49.40;;
8399;SDS011;4237;47.030;15.396;2022-10-16T00:25:05;88.13;;;49.43;;
8399;SDS011;4237;47.030;15.396;2022-10-16T00:27:51;71.13;;;47.23;;
8399;SDS011;4237;47.030;15.396;2022-10-16T00:30:19;82.83;;;49.27;;
8399;SDS011;4237;47.030;15.396;2022-10-16T00:32:47;78.13;;;46.23;;
8399;SDS011;4237;47.030;15.396;2022-10-16T00:35:15;74.30;;;45.90;;
8399;SDS011;4237;47.030;15.396;2022-10-16T00:37:44;81.70;;;48.83;;
8399;SDS011;4237;47.030;15.396;2022-10-16T00:40:12;72.83;;;47.67;;
8399;SDS011;4237;47.030;15.396;2022-10-16T00:42:40;79.33;;;49.70;;
8399;SDS011;4237;47.030;15.396;2022-10-16T00:45:09;79.07;;;47.97;;
8399;SDS011;4237;47.030;15.396;2022-10-16T00:47:39;80.73;;;50.13;;
8399;SDS011;4237;47.030;15.396;2022-10-16T00:50:11;82.13;;;47.90;;
8399;SDS011;4237;47.030;15.396;2022-10-16T00:52:40;81.97;;;48.93;;
8399;SDS011;4237;47.030;15.396;2022-10-16T00:55:09;77.93;;;47.60;;
8399;SDS011;4237;47.030;15.396;2022-10-16T00:57:37;85.97;;;50.30;;
8399;SDS011;4237;47.030;15.396;2022-10-16T01:00:08;90.60;;;50.17;;
8399;SDS011;4237;47.030;15.396;2022-10-16T01:02:36;80.00;;;47.80;;
8399;SDS011;4237;47.030;15.396;2022-10-16T01:05:04;77.23;;;48.27;;
8399;SDS011;4237;47.030;15.396;2022-10-16T01:07:36;75.40;;;47.40;;
8399;SDS011;4237;47.030;15.396;2022-10-16T01:12:40;76.03;;;45.93;;
8399;SDS011;4237;47.030;15.396;2022-10-16T01:15:14;75.33;;;47.27;;
8399;SDS011;4237;47.030;15.396;2022-10-16T01:17:51;77.80;;;45.77;;
8399;SDS011;4237;47.030;15.396;2022-10-16T01:20:26;79.10;;;46.23;;
8399;SDS011;4237;47.030;15.396;2022-10-16T01:25:51;75.53;;;45.73;;
8399;SDS011;4237;47.030;15.396;2022-10-16T01:28:16;72.03;;;44.63;;
8399;SDS011;4237;47.030;15.396;2022-10-16T01:30:46;72.53;;;45.27;;
8399;SDS011;4237;47.030;15.396;2022-10-16T01:33:20;71.20;;;43.97;;
8399;SDS011;4237;47.030;15.396;2022-10-16T01:35:50;67.97;;;43.67;;
8399;SDS011;4237;47.030;15.396;2022-10-16T01:40:55;68.30;;;42.97;;
8399;SDS011;4237;47.030;15.396;2022-10-16T01:43:49;69.03;;;45.03;;
8399;SDS011;4237;47.030;15.396;2022-10-16T01:46:16;75.57;;;46.20;;
8399;SDS011;4237;47.030;15.396;2022-10-16T01:48:44;76.07;;;45.90;;
8399;SDS011;4237;47.030;15.396;2022-10-16T01:51:13;76.73;;;47.27;;
8399;SDS011;4237;47.030;15.396;2022-10-16T01:53:43;74.70;;;46.33;;
8399;SDS011;4237;47.030;15.396;2022-10-16T01:56:12;74.37;;;46.37;;
8399;SDS011;4237;47.030;15.396;2022-10-16T01:58:45;74.87;;;45.77;;
8399;SDS011;4237;47.030;15.396;2022-10-16T02:01:12;72.13;;;46.27;;
8399;SDS011;4237;47.030;15.396;2022-10-16T02:03:42;71.37;;;46.27;;
8399;SDS011;4237;47.030;15.396;2022-10-16T02:06:11;77.77;;;45.43;;
8399;SDS011;4237;47.030;15.396;2022-10-16T02:08:39;85.90;;;46.00;;
8399;SDS011;4237;47.030;15.396;2022-10-16T02:11:10;77.73;;;46.83;;
8399;SDS011;4237;47.030;15.396;2022-10-16T02:13:41;78.53;;;46.90;;
8399;SDS011;4237;47.030;15.396;2022-10-16T02:16:09;80.77;;;47.37;;
8399;SDS011;4237;47.030;15.396;2022-10-16T02:18:38;84.07;;;48.87;;
8399;SDS011;4237;47.030;15.396;2022-10-16T02:21:14;77.57;;;47.03;;
8399;SDS011;4237;47.030;15.396;2022-10-16T02:26:30;87.90;;;48.13;;
8399;SDS011;4237;47.030;15.396;2022-10-16T02:29:00;76.67;;;47.93;;
8399;SDS011;4237;47.030;15.396;2022-10-16T02:31:28;72.93;;;46.30;;
8399;SDS011;4237;47.030;15.396;2022-10-16T02:33:58;68.93;;;45.60;;
8399;SDS011;4237;47.030;15.396;2022-10-16T02:36:26;74.87;;;46.80;;
8399;SDS011;4237;47.030;15.396;2022-10-16T02:38:55;90.10;;;54.60;;
8399;SDS011;4237;47.030;15.396;2022-10-16T02:41:23;107.63;;;57.40;;
8399;SDS011;4237;47.030;15.396;2022-10-16T02:43:52;108.93;;;58.00;;
8399;SDS011;4237;47.030;15.396;2022-10-16T02:46:20;95.43;;;55.43;;
8399;SDS011;4237;47.030;15.396;2022-10-16T02:48:49;94.63;;;53.90;;
8399;SDS011;4237;47.030;15.396;2022-10-16T02:51:17;85.63;;;51.10;;
8399;SDS011;4237;47.030;15.396;2022-10-16T02:53:45;85.07;;;50.23;;
8399;SDS011;4237;47.030;15.396;2022-10-16T02:56:13;81.33;;;48.93;;
8399;SDS011;4237;47.030;15.396;2022-10-16T02:58:41;77.37;;;47.27;;
8399;SDS011;4237;47.030;15.396;2022-10-16T03:01:10;79.13;;;48.97;;
8399;SDS011;4237;47.030;15.396;2022-10-16T03:03:39;91.53;;;50.77;;
8399;SDS011;4237;47.030;15.396;2022-10-16T03:06:07;92.50;;;52.53;;
8399;SDS011;4237;47.030;15.396;2022-10-16T03:08:36;132.47;;;58.90;;
8399;SDS011;4237;47.030;15.396;2022-10-16T03:11:04;122.20;;;56.50;;
8399;SDS011;4237;47.030;15.396;2022-10-16T03:13:32;125.63;;;58.10;;
8399;SDS011;4237;47.030;15.396;2022-10-16T03:16:01;159.37;;;60.03;;
8399;SDS011;4237;47.030;15.396;2022-10-16T03:18:29;199.43;;;61.93;;
8399;SDS011;4237;47.030;15.396;2022-10-16T03:20:57;305.87;;;60.03;;
8399;SDS011;4237;47.030;15.396;2022-10-16T03:23:25;127.57;;;56.53;;
8399;SDS011;4237;47.030;15.396;2022-10-16T03:25:53;128.03;;;59.27;;
8399;SDS011;4237;47.030;15.396;2022-10-16T03:28:21;115.27;;;56.00;;
8399;SDS011;4237;47.030;15.396;2022-10-16T03:30:50;189.97;;;63.27;;
8399;SDS011;4237;47.030;15.396;2022-10-16T03:33:18;135.53;;;56.23;;
8399;SDS011;4237;47.030;15.396;2022-10-16T03:35:51;260.37;;;63.53;;
8399;SDS011;4237;47.030;15.396;2022-10-16T03:38:16;170.60;;;60.10;;
8399;SDS011;4237;47.030;15.396;2022-10-16T03:40:44;147.63;;;58.93;;
8399;SDS011;4237;47.030;15.396;2022-10-16T03:43:12;196.73;;;58.73;;
8399;SDS011;4237;47.030;15.396;2022-10-16T03:45:41;120.37;;;55.90;;
8399;SDS011;4237;47.030;15.396;2022-10-16T03:48:09;153.40;;;59.20;;
8399;SDS011;4237;47.030;15.396;2022-10-16T03:50:37;225.80;;;61.00;;
8399;SDS011;4237;47.030;15.396;2022-10-16T03:53:06;151.43;;;60.13;;
8399;SDS011;4237;47.030;15.396;2022-10-16T03:55:34;175.87;;;58.40;;
8399;SDS011;4237;47.030;15.396;2022-10-16T03:58:03;251.80;;;58.13;;
8399;SDS011;4237;47.030;15.396;2022-10-16T04:00:31;393.60;;;64.23;;
8399;SDS011;4237;47.030;15.396;2022-10-16T04:02:59;382.40;;;65.93;;
8399;SDS011;4237;47.030;15.396;2022-10-16T04:05:28;456.47;;;66.10;;
8399;SDS011;4237;47.030;15.396;2022-10-16T04:07:56;447.67;;;68.23;;
8399;SDS011;4237;47.030;15.396;2022-10-16T04:10:24;450.57;;;70.20;;
8399;SDS011;4237;47.030;15.396;2022-10-16T04:12:52;343.67;;;66.60;;
8399;SDS011;4237;47.030;15.396;2022-10-16T04:15:22;313.40;;;63.67;;
8399;SDS011;4237;47.030;15.396;2022-10-16T04:17:51;372.77;;;69.47;;
8399;SDS011;4237;47.030;15.396;2022-10-16T04:20:19;289.63;;;61.37;;
8399;SDS011;4237;47.030;15.396;2022-10-16T04:22:47;401.37;;;69.53;;
8399;SDS011;4237;47.030;15.396;2022-10-16T04:25:16;167.90;;;57.73;;
8399;SDS011;4237;47.030;15.396;2022-10-16T04:27:44;269.90;;;60.73;;
8399;SDS011;4237;47.030;15.396;2022-10-16T04:30:12;418.20;;;66.30;;
8399;SDS011;4237;47.030;15.396;2022-10-16T04:32:41;154.27;;;57.57;;
8399;SDS011;4237;47.030;15.396;2022-10-16T04:35:09;379.27;;;65.43;;
8399;SDS011;4237;47.030;15.396;2022-10-16T04:37:37;235.90;;;58.50;;
8399;SDS011;4237;47.030;15.396;2022-10-16T04:40:06;112.53;;;52.63;;
8399;SDS011;4237;47.030;15.396;2022-10-16T04:42:34;84.80;;;49.97;;
8399;SDS011;4237;47.030;15.396;2022-10-16T04:45:03;82.73;;;47.90;;
8399;SDS011;4237;47.030;15.396;2022-10-16T04:47:31;87.90;;;48.27;;
8399;SDS011;4237;47.030;15.396;2022-10-16T04:49:59;99.63;;;50.60;;
8399;SDS011;4237;47.030;15.396;2022-10-16T04:52:29;225.67;;;57.87;;
8399;SDS011;4237;47.030;15.396;2022-10-16T04:54:58;446.17;;;72.20;;
8399;SDS011;4237;47.030;15.396;2022-10-16T04:57:29;426.83;;;70.00;;
8399;SDS011;4237;47.030;15.396;2022-10-16T04:59:57;510.00;;;75.27;;
8399;SDS011;4237;47.030;15.396;2022-10-16T05:02:25;259.23;;;63.53;;
8399;SDS011;4237;47.030;15.396;2022-10-16T05:04:53;420.77;;;72.47;;
8399;SDS011;4237;47.030;15.396;2022-10-16T05:07:22;397.97;;;69.63;;
8399;SDS011;4237;47.030;15.396;2022-10-16T05:09:50;516.47;;;79.37;;
8399;SDS011;4237;47.030;15.396;2022-10-16T05:12:18;447.10;;;73.00;;
8399;SDS011;4237;47.030;15.396;2022-10-16T05:14:46;622.57;;;83.17;;
8399;SDS011;4237;47.030;15.396;2022-10-16T05:17:15;551.70;;;78.87;;
8399;SDS011;4237;47.030;15.396;2022-10-16T05:19:43;527.37;;;79.87;;
8399;SDS011;4237;47.030;15.396;2022-10-16T05:22:11;547.77;;;78.20;;
8399;SDS011;4237;47.030;15.396;2022-10-16T05:24:39;618.60;;;86.50;;
8399;SDS011;4237;47.030;15.396;2022-10-16T05:27:07;434.33;;;73.53;;
8399;SDS011;4237;47.030;15.396;2022-10-16T05:29:36;223.33;;;59.10;;
8399;SDS011;4237;47.030;15.396;2022-10-16T05:32:04;162.53;;;54.90;;
8399;SDS011;4237;47.030;15.396;2022-10-16T05:34:32;228.20;;;59.10;;
8399;SDS011;4237;47.030;15.396;2022-10-16T05:37:00;486.97;;;72.50;;
8399;SDS011;4237;47.030;15.396;2022-10-16T05:39:28;403.83;;;68.73;;
8399;SDS011;4237;47.030;15.396;2022-10-16T05:41:57;426.13;;;69.83;;
8399;SDS011;4237;47.030;15.396;2022-10-16T05:44:25;545.20;;;72.13;;
8399;SDS011;4237;47.030;15.396;2022-10-16T05:46:53;364.90;;;61.27;;
8399;SDS011;4237;47.030;15.396;2022-10-16T05:49:22;597.53;;;75.13;;
8399;SDS011;4237;47.030;15.396;2022-10-16T05:51:50;265.33;;;59.00;;
8399;SDS011;4237;47.030;15.396;2022-10-16T05:54:18;254.73;;;57.63;;
8399;SDS011;4237;47.030;15.396;2022-10-16T05:56:47;173.10;;;54.20;;
8399;SDS011;4237;47.030;15.396;2022-10-16T05:59:15;111.17;;;49.63;;
8399;SDS011;4237;47.030;15.396;2022-10-16T06:01:43;163.37;;;51.07;;
8399;SDS011;4237;47.030;15.396;2022-10-16T06:04:11;144.77;;;52.57;;
8399;SDS011;4237;47.030;15.396;2022-10-16T06:06:39;100.27;;;48.37;;
8399;SDS011;4237;47.030;15.396;2022-10-16T06:09:08;110.07;;;45.90;;
8399;SDS011;4237;47.030;15.396;2022-10-16T06:11:37;216.00;;;49.77;;
8399;SDS011;4237;47.030;15.396;2022-10-16T06:14:05;102.20;;;45.33;;
8399;SDS011;4237;47.030;15.396;2022-10-16T06:16:36;69.97;;;42.00;;
8399;SDS011;4237;47.030;15.396;2022-10-16T06:19:04;109.30;;;45.80;;
8399;SDS011;4237;47.030;15.396;2022-10-16T06:21:36;75.03;;;43.63;;
8399;SDS011;4237;47.030;15.396;2022-10-16T06:24:04;87.27;;;44.90;;
8399;SDS011;4237;47.030;15.396;2022-10-16T06:26:33;77.30;;;45.23;;
8399;SDS011;4237;47.030;15.396;2022-10-16T06:29:01;81.43;;;43.83;;
8399;SDS011;4237;47.030;15.396;2022-10-16T06:31:29;79.33;;;42.13;;
8399;SDS011;4237;47.030;15.396;2022-10-16T06:33:59;71.43;;;38.73;;
8399;SDS011;4237;47.030;15.396;2022-10-16T06:36:28;62.43;;;38.03;;
8399;SDS011;4237;47.030;15.396;2022-10-16T06:38:57;64.07;;;38.00;;
8399;SDS011;4237;47.030;15.396;2022-10-16T06:41:26;78.40;;;40.20;;
8399;SDS011;4237;47.030;15.396;2022-10-16T06:43:54;98.63;;;40.70;;
8399;SDS011;4237;47.030;15.396;2022-10-16T06:46:23;83.40;;;39.17;;
8399;SDS011;4237;47.030;15.396;2022-10-16T06:48:54;237.93;;;45.60;;
8399;SDS011;4237;47.030;15.396;2022-10-16T06:51:23;148.87;;;36.63;;
8399;SDS011;4237;47.030;15.396;2022-10-16T06:53:53;53.37;;;34.47;;
8399;SDS011;4237;47.030;15.396;2022-10-16T06:56:24;57.67;;;32.20;;
8399;SDS011;4237;47.030;15.396;2022-10-16T06:58:53;51.93;;;31.63;;
8399;SDS011;4237;47.030;15.396;2022-10-16T07:01:22;41.70;;;30.43;;
8399;SDS011;4237;47.030;15.396;2022-10-16T07:03:51;52.90;;;28.87;;
8399;SDS011;4237;47.030;15.396;2022-10-16T07:06:21;58.50;;;28.40;;
8399;SDS011;4237;47.030;15.396;2022-10-16T07:08:50;45.40;;;29.67;;
8399;SDS011;4237;47.030;15.396;2022-10-16T07:11:19;49.30;;;26.93;;
8399;SDS011;4237;47.030;15.396;2022-10-16T07:13:48;52.87;;;27.17;;
8399;SDS011;4237;47.030;15.396;2022-10-16T07:16:19;39.77;;;26.03;;
8399;SDS011;4237;47.030;15.396;2022-10-16T07:18:47;59.00;;;27.87;;
8399;SDS011;4237;47.030;15.396;2022-10-16T07:21:17;34.20;;;26.00;;
8399;SDS011;4237;47.030;15.396;2022-10-16T07:23:50;57.17;;;27.07;;
8399;SDS011;4237;47.030;15.396;2022-10-16T07:26:18;71.23;;;22.73;;
8399;SDS011;4237;47.030;15.396;2022-10-16T07:28:46;73.53;;;25.07;;
8399;SDS011;4237;47.030;15.396;2022-10-16T07:31:15;39.57;;;24.90;;
8399;SDS011;4237;47.030;15.396;2022-10-16T07:33:44;45.30;;;26.77;;
8399;SDS011;4237;47.030;15.396;2022-10-16T07:36:15;55.43;;;26.13;;
8399;SDS011;4237;47.030;15.396;2022-10-16T07:38:44;98.03;;;24.20;;
8399;SDS011;4237;47.030;15.396;2022-10-16T07:41:13;86.70;;;27.53;;
8399;SDS011;4237;47.030;15.396;2022-10-16T07:43:46;97.20;;;25.93;;
8399;SDS011;4237;47.030;15.396;2022-10-16T07:46:11;32.73;;;25.70;;
8399;SDS011;4237;47.030;15.396;2022-10-16T07:48:39;39.80;;;25.83;;
8399;SDS011;4237;47.030;15.396;2022-10-16T07:51:08;34.43;;;26.27;;
8399;SDS011;4237;47.030;15.396;2022-10-16T07:53:37;34.97;;;27.40;;
8399;SDS011;4237;47.030;15.396;2022-10-16T07:56:05;32.47;;;27.67;;
8399;SDS011;4237;47.030;15.396;2022-10-16T07:58:34;31.83;;;26.47;;
8399;SDS011;4237;47.030;15.396;2022-10-16T08:01:05;42.20;;;26.23;;
8399;SDS011;4237;47.030;15.396;2022-10-16T08:03:34;35.27;;;25.60;;
8399;SDS011;4237;47.030;15.396;2022-10-16T08:06:02;29.90;;;25.83;;
8399;SDS011;4237;47.030;15.396;2022-10-16T08:08:31;30.80;;;25.50;;
8399;SDS011;4237;47.030;15.396;2022-10-16T08:10:59;30.30;;;25.97;;
8399;SDS011;4237;47.030;15.396;2022-10-16T08:13:30;29.83;;;25.70;;
8399;SDS011;4237;47.030;15.396;2022-10-16T08:15:58;28.53;;;25.47;;
8399;SDS011;4237;47.030;15.396;2022-10-16T08:18:26;29.23;;;25.87;;
8399;SDS011;4237;47.030;15.396;2022-10-16T08:21:16;30.47;;;26.93;;
8399;SDS011;4237;47.030;15.396;2022-10-16T08:23:44;29.20;;;25.40;;
8399;SDS011;4237;47.030;15.396;2022-10-16T08:26:13;27.70;;;24.90;;
8399;SDS011;4237;47.030;15.396;2022-10-16T08:28:41;24.80;;;22.20;;
8399;SDS011;4237;47.030;15.396;2022-10-16T08:31:13;24.67;;;22.17;;
8399;SDS011;4237;47.030;15.396;2022-10-16T08:33:42;25.13;;;22.63;;
8399;SDS011;4237;47.030;15.396;2022-10-16T08:36:11;25.60;;;22.57;;
8399;SDS011;4237;47.030;15.396;2022-10-16T08:38:40;25.57;;;22.97;;
8399;SDS011;4237;47.030;15.396;2022-10-16T08:46:53;25.50;;;21.90;;
8399;SDS011;4237;47.030;15.396;2022-10-16T08:49:19;23.07;;;20.32;;
8399;SDS011;4237;47.030;15.396;2022-10-16T08:51:48;26.17;;;21.70;;
8399;SDS011;4237;47.030;15.396;2022-10-16T08:54:34;25.00;;;21.60;;
8399;SDS011;4237;47.030;15.396;2022-10-16T08:57:09;24.45;;;20.82;;
8399;SDS011;4237;47.030;15.396;2022-10-16T08:59:36;23.38;;;20.85;;
8399;SDS011;4237;47.030;15.396;2022-10-16T09:02:19;25.00;;;21.97;;
8399;SDS011;4237;47.030;15.396;2022-10-16T09:04:44;22.07;;;19.77;;
8399;SDS011;4237;47.030;15.396;2022-10-16T09:07:16;22.07;;;19.87;;
8399;SDS011;4237;47.030;15.396;2022-10-16T09:09:44;22.20;;;20.05;;
8399;SDS011;4237;47.030;15.396;2022-10-16T09:12:12;21.80;;;18.98;;
8399;SDS011;4237;47.030;15.396;2022-10-16T09:15:00;22.37;;;20.17;;
8399;SDS011;4237;47.030;15.396;2022-10-16T09:20:31;22.05;;;19.52;;
8399;SDS011;4237;47.030;15.396;2022-10-16T09:25:34;21.42;;;19.27;;
8399;SDS011;4237;47.030;15.396;2022-10-16T09:28:04;20.60;;;18.40;;
8399;SDS011;4237;47.030;15.396;2022-10-16T09:30:33;22.85;;;18.55;;
8399;SDS011;4237;47.030;15.396;2022-10-16T09:33:01;21.12;;;18.32;;
8399;SDS011;4237;47.030;15.396;2022-10-16T09:35:48;20.43;;;18.27;;
8399;SDS011;4237;47.030;15.396;2022-10-16T09:40:50;21.87;;;18.32;;
8399;SDS011;4237;47.030;15.396;2022-10-16T09:45:55;21.10;;;18.92;;
8399;SDS011;4237;47.030;15.396;2022-10-16T09:48:23;20.48;;;18.32;;
8399;SDS011;4237;47.030;15.396;2022-10-16T09:51:02;20.68;;;18.48;;
8399;SDS011;4237;47.030;15.396;2022-10-16T09:53:26;19.95;;;18.12;;
8399;SDS011;4237;47.030;15.396;2022-10-16T09:55:55;19.77;;;17.73;;
8399;SDS011;4237;47.030;15.396;2022-10-16T09:58:23;20.25;;;18.25;;
8399;SDS011;4237;47.030;15.396;2022-10-16T10:00:53;20.25;;;18.15;;
8399;SDS011;4237;47.030;15.396;2022-10-16T10:03:32;19.73;;;17.82;;
8399;SDS011;4237;47.030;15.396;2022-10-16T10:05:57;19.75;;;17.40;;
8399;SDS011;4237;47.030;15.396;2022-10-16T10:08:25;20.32;;;16.97;;
8399;SDS011;4237;47.030;15.396;2022-10-16T10:10:54;18.35;;;16.65;;
8399;SDS011;4237;47.030;15.396;2022-10-16T10:13:22;18.02;;;16.10;;
8399;SDS011;4237;47.030;15.396;2022-10-16T10:15:52;18.85;;;16.40;;
8399;SDS011;4237;47.030;15.396;2022-10-16T10:18:21;17.77;;;16.05;;
8399;SDS011;4237;47.030;15.396;2022-10-16T10:21:00;17.35;;;15.53;;
8399;SDS011;4237;47.030;15.396;2022-10-16T10:23:29;17.17;;;15.48;;
8399;SDS011;4237;47.030;15.396;2022-10-16T10:26:06;18.65;;;15.98;;
8399;SDS011;4237;47.030;15.396;2022-10-16T10:33:45;16.20;;;14.70;;
8399;SDS011;4237;47.030;15.396;2022-10-16T10:36:16;17.05;;;15.45;;
8399;SDS011;4237;47.030;15.396;2022-10-16T10:38:53;15.85;;;14.35;;
8399;SDS011;4237;47.030;15.396;2022-10-16T10:44:03;18.80;;;14.90;;
8399;SDS011;4237;47.030;15.396;2022-10-16T10:46:32;15.88;;;14.38;;
8399;SDS011;4237;47.030;15.396;2022-10-16T10:49:10;16.12;;;14.40;;
8399;SDS011;4237;47.030;15.396;2022-10-16T10:51:43;15.48;;;13.80;;
8399;SDS011;4237;47.030;15.396;2022-10-16T11:07:31;15.05;;;12.88;;
8399;SDS011;4237;47.030;15.396;2022-10-16T11:09:45;15.13;;;13.53;;
8399;SDS011;4237;47.030;15.396;2022-10-16T11:12:18;15.30;;;12.80;;
8399;SDS011;4237;47.030;15.396;2022-10-16T11:20:16;16.23;;;14.58;;
8399;SDS011;4237;47.030;15.396;2022-10-16T11:22:43;16.85;;;13.62;;
8399;SDS011;4237;47.030;15.396;2022-10-16T11:30:38;14.75;;;13.25;;
8399;SDS011;4237;47.030;15.396;2022-10-16T11:35:50;14.07;;;12.73;;
8399;SDS011;4237;47.030;15.396;2022-10-16T11:40:50;15.45;;;13.85;;
8399;SDS011;4237;47.030;15.396;2022-10-16T11:43:31;14.25;;;12.78;;
8399;SDS011;4237;47.030;15.396;2022-10-16T11:45:50;14.05;;;12.70;;
8399;SDS011;4237;47.030;15.396;2022-10-16T12:03:24;15.30;;;13.35;;
8399;SDS011;4237;47.030;15.396;2022-10-16T12:08:38;14.30;;;13.00;;
8399;SDS011;4237;47.030;15.396;2022-10-16T12:11:20;14.95;;;13.30;;
8399;SDS011;4237;47.030;15.396;2022-10-16T12:13:37;15.53;;;13.28;;
8399;SDS011;4237;47.030;15.396;2022-10-16T12:16:08;16.32;;;13.03;;
8399;SDS011;4237;47.030;15.396;2022-10-16T12:18:35;15.48;;;12.68;;
8399;SDS011;4237;47.030;15.396;2022-10-16T12:21:04;15.60;;;13.83;;
8399;SDS011;4237;47.030;15.396;2022-10-16T12:23:37;13.75;;;12.35;;
8399;SDS011;4237;47.030;15.396;2022-10-16T12:26:06;13.55;;;12.30;;
8399;SDS011;4237;47.030;15.396;2022-10-16T12:28:34;13.85;;;12.45;;
8399;SDS011;4237;47.030;15.396;2022-10-16T12:31:05;13.08;;;11.88;;
8399;SDS011;4237;47.030;15.396;2022-10-16T12:33:34;12.55;;;11.35;;
8399;SDS011;4237;47.030;15.396;2022-10-16T12:36:04;14.68;;;11.08;;
8399;SDS011;4237;47.030;15.396;2022-10-16T12:41:26;13.58;;;11.95;;
8399;SDS011;4237;47.030;15.396;2022-10-16T12:43:45;13.38;;;12.05;;
8399;SDS011;4237;47.030;15.396;2022-10-16T12:48:44;14.00;;;11.97;;
8399;SDS011;4237;47.030;15.396;2022-10-16T12:51:22;12.25;;;11.12;;
8399;SDS011;4237;47.030;15.396;2022-10-16T12:54:03;12.85;;;11.65;;
8399;SDS011;4237;47.030;15.396;2022-10-16T12:59:25;13.50;;;12.20;;
8399;SDS011;4237;47.030;15.396;2022-10-16T13:02:03;13.43;;;11.95;;
8399;SDS011;4237;47.030;15.396;2022-10-16T13:12:33;15.13;;;13.35;;
8399;SDS011;4237;47.030;15.396;2022-10-16T13:15:04;14.65;;;13.15;;
8399;SDS011;4237;47.030;15.396;2022-10-16T13:17:37;13.58;;;12.23;;
8399;SDS011;4237;47.030;15.396;2022-10-16T13:20:16;15.85;;;12.55;;
8399;SDS011;4237;47.030;15.396;2022-10-16T13:27:59;16.00;;;13.43;;
8399;SDS011;4237;47.030;15.396;2022-10-16T13:30:26;14.35;;;12.90;;
8399;SDS011;4237;47.030;15.396;2022-10-16T13:33:19;14.95;;;13.00;;
8399;SDS011;4237;47.030;15.396;2022-10-16T13:35:26;14.40;;;13.00;;
8399;SDS011;4237;47.030;15.396;2022-10-16T13:38:18;17.17;;;12.93;;
8399;SDS011;4237;47.030;15.396;2022-10-16T13:40:24;14.95;;;12.95;;
8399;SDS011;4237;47.030;15.396;2022-10-16T13:42:54;16.35;;;13.28;;
8399;SDS011;4237;47.030;15.396;2022-10-16T13:45:24;14.00;;;12.70;;
8399;SDS011;4237;47.030;15.396;2022-10-16T13:48:01;15.25;;;12.60;;
8399;SDS011;4237;47.030;15.396;2022-10-16T13:50:34;15.48;;;12.35;;
8399;SDS011;4237;47.030;15.396;2022-10-16T13:53:05;13.45;;;12.13;;
8399;SDS011;4237;47.030;15.396;2022-10-16T13:55:34;13.18;;;11.88;;
8399;SDS011;4237;47.030;15.396;2022-10-16T13:58:07;13.88;;;12.37;;
8399;SDS011;4237;47.030;15.396;2022-10-16T14:00:34;15.32;;;12.82;;
8399;SDS011;4237;47.030;15.396;2022-10-16T14:03:04;14.00;;;12.45;;
8399;SDS011;4237;47.030;15.396;2022-10-16T14:05:33;16.65;;;13.58;;
8399;SDS011;4237;47.030;15.396;2022-10-16T14:08:01;17.48;;;13.03;;
8399;SDS011;4237;47.030;15.396;2022-10-16T14:10:30;13.43;;;12.03;;
8399;SDS011;4237;47.030;15.396;2022-10-16T14:13:01;14.85;;;12.70;;
8399;SDS011;4237;47.030;15.396;2022-10-16T14:15:30;14.75;;;13.20;;
8399;SDS011;4237;47.030;15.396;2022-10-16T14:17:59;15.85;;;12.68;;
8399;SDS011;4237;47.030;15.396;2022-10-16T14:20:28;16.17;;;12.23;;
8399;SDS011;4237;47.030;15.396;2022-10-16T14:22:58;13.20;;;11.65;;
8399;SDS011;4237;47.030;15.396;2022-10-16T14:25:28;15.90;;;13.10;;
8399;SDS011;4237;47.030;15.396;2022-10-16T14:28:05;14.78;;;13.20;;
8399;SDS011;4237;47.030;15.396;2022-10-16T14:30:30;13.48;;;12.15;;
8399;SDS011;4237;47.030;15.396;2022-10-16T14:33:06;13.90;;;12.50;;
8399;SDS011;4237;47.030;15.396;2022-10-16T14:35:36;16.37;;;13.15;;
8399;SDS011;4237;47.030;15.396;2022-10-16T14:38:05;15.80;;;12.03;;
8399;SDS011;4237;47.030;15.396;2022-10-16T14:40:35;14.40;;;12.63;;
8399;SDS011;4237;47.030;15.396;2022-10-16T14:43:03;14.43;;;12.93;;
8399;SDS011;4237;47.030;15.396;2022-10-16T14:45:33;13.83;;;12.40;;
8399;SDS011;4237;47.030;15.396;2022-10-16T14:48:06;14.45;;;13.00;;
8399;SDS011;4237;47.030;15.396;2022-10-16T14:50:35;17.60;;;15.00;;
8399;SDS011;4237;47.030;15.396;2022-10-16T14:53:07;19.45;;;17.23;;
8399;SDS011;4237;47.030;15.396;2022-10-16T14:55:32;21.27;;;16.37;;
8399;SDS011;4237;47.030;15.396;2022-10-16T14:58:01;22.47;;;17.87;;
8399;SDS011;4237;47.030;15.396;2022-10-16T15:00:29;22.53;;;17.77;;
8399;SDS011;4237;47.030;15.396;2022-10-16T15:02:58;24.70;;;18.90;;
8399;SDS011;4237;47.030;15.396;2022-10-16T15:05:26;19.17;;;17.00;;
8399;SDS011;4237;47.030;15.396;2022-10-16T15:07:55;22.60;;;17.23;;
8399;SDS011;4237;47.030;15.396;2022-10-16T15:10:24;24.87;;;16.60;;
8399;SDS011;4237;47.030;15.396;2022-10-16T15:12:53;23.23;;;17.33;;
8399;SDS011;4237;47.030;15.396;2022-10-16T15:17:55;22.40;;;15.67;;
8399;SDS011;4237;47.030;15.396;2022-10-16T15:20:24;17.97;;;16.07;;
8399;SDS011;4237;47.030;15.396;2022-10-16T15:22:53;25.47;;;16.70;;
8399;SDS011;4237;47.030;15.396;2022-10-16T15:25:32;28.73;;;21.33;;
8399;SDS011;4237;47.030;15.396;2022-10-16T15:28:00;27.40;;;19.47;;
8399;SDS011;4237;47.030;15.396;2022-10-16T15:30:29;22.07;;;18.07;;
8399;SDS011;4237;47.030;15.396;2022-10-16T15:32:58;43.47;;;30.70;;
8399;SDS011;4237;47.030;15.396;2022-10-16T15:35:26;25.27;;;21.43;;
8399;SDS011;4237;47.030;15.396;2022-10-16T15:37:55;23.57;;;20.27;;
8399;SDS011;4237;47.030;15.396;2022-10-16T15:40:23;27.03;;;20.00;;
8399;SDS011;4237;47.030;15.396;2022-10-16T15:42:52;26.90;;;20.77;;
8399;SDS011;4237;47.030;15.396;2022-10-16T15:45:20;23.23;;;20.43;;
8399;SDS011;4237;47.030;15.396;2022-10-16T15:47:49;23.27;;;20.77;;
8399;SDS011;4237;47.030;15.396;2022-10-16T15:50:17;32.50;;;25.50;;
8399;SDS011;4237;47.030;15.396;2022-10-16T15:52:45;38.60;;;24.93;;
8399;SDS011;4237;47.030;15.396;2022-10-16T15:55:14;34.70;;;29.17;;
8399;SDS011;4237;47.030;15.396;2022-10-16T15:57:42;30.47;;;25.87;;
8399;SDS011;4237;47.030;15.396;2022-10-16T16:00:14;35.30;;;25.47;;
8399;SDS011;4237;47.030;15.396;2022-10-16T16:02:43;35.33;;;24.10;;
8399;SDS011;4237;47.030;15.396;2022-10-16T16:05:12;29.33;;;23.10;;
8399;SDS011;4237;47.030;15.396;2022-10-16T16:07:40;33.30;;;23.40;;
8399;SDS011;4237;47.030;15.396;2022-10-16T16:10:09;30.87;;;24.30;;
8399;SDS011;4237;47.030;15.396;2022-10-16T16:12:38;34.47;;;25.17;;
8399;SDS011;4237;47.030;15.396;2022-10-16T16:15:07;33.57;;;23.93;;
8399;SDS011;4237;47.030;15.396;2022-10-16T16:17:36;31.77;;;24.17;;
8399;SDS011;4237;47.030;15.396;2022-10-16T16:20:04;34.03;;;24.40;;
8399;SDS011;4237;47.030;15.396;2022-10-16T16:22:33;32.00;;;23.67;;
8399;SDS011;4237;47.030;15.396;2022-10-16T16:25:01;33.70;;;25.37;;
8399;SDS011;4237;47.030;15.396;2022-10-16T16:27:29;35.83;;;24.53;;
8399;SDS011;4237;47.030;15.396;2022-10-16T16:29:59;30.53;;;24.17;;